createdAt,value
2019-02-21T00:01:44.458Z,18.00
2019-02-21T00:04:10.774Z,18.57
2019-02-21T00:06:37.929Z,18.27
2019-02-21T00:09:05.604Z,18.40
2019-02-21T00:11:32.004Z,19.03
2019-02-21T00:13:58.504Z,19.30
2019-02-21T00:16:24.988Z,17.03
2019-02-21T00:18:51.616Z,16.93
2019-02-21T00:21:18.043Z,17.90
2019-02-21T00:23:45.054Z,18.70
2019-02-21T00:26:11.486Z,18.63
2019-02-21T00:28:37.873Z,17.93
2019-02-21T00:31:04.324Z,18.00
2019-02-21T00:33:30.652Z,19.10
2019-02-21T00:35:56.944Z,17.17
2019-02-21T00:38:23.289Z,16.90
2019-02-21T00:40:49.810Z,16.63
2019-02-21T00:43:16.144Z,18.67
2019-02-21T00:45:42.391Z,17.03
2019-02-21T00:48:08.830Z,17.37
2019-02-21T00:50:35.244Z,17.00
2019-02-21T00:53:01.513Z,18.87
2019-02-21T00:55:28.038Z,16.87
2019-02-21T00:57:54.667Z,17.33
2019-02-21T01:00:21.169Z,17.83
2019-02-21T01:02:47.688Z,17.50
2019-02-21T01:05:14.396Z,18.97
2019-02-21T01:07:40.920Z,18.90
2019-02-21T01:10:07.728Z,17.43
2019-02-21T01:12:34.057Z,19.10
2019-02-21T01:15:00.409Z,17.83
2019-02-21T01:17:26.948Z,18.63
2019-02-21T01:19:53.900Z,18.43
2019-02-21T01:22:20.539Z,18.37
2019-02-21T01:24:46.872Z,18.03
2019-02-21T01:27:13.300Z,19.10
2019-02-21T01:29:39.645Z,17.73
2019-02-21T01:32:05.973Z,18.10
2019-02-21T01:34:32.405Z,18.20
2019-02-21T01:37:00.063Z,18.57
2019-02-21T01:39:26.585Z,18.13
2019-02-21T01:41:54.876Z,19.20
2019-02-21T01:44:21.838Z,17.70
2019-02-21T01:46:48.330Z,17.90
2019-02-21T01:49:15.032Z,16.87
2019-02-21T01:51:47.188Z,17.77
2019-02-21T01:54:13.865Z,17.97
2019-02-21T01:56:40.301Z,18.33
2019-02-21T01:59:06.602Z,18.27
2019-02-21T02:01:33.083Z,17.80
2019-02-21T02:03:59.725Z,19.20
2019-02-21T02:06:26.083Z,17.90
2019-02-21T02:08:52.363Z,17.27
2019-02-21T02:11:18.873Z,17.30
2019-02-21T02:13:45.672Z,17.73
2019-02-21T02:16:12.183Z,19.00
2019-02-21T02:18:40.079Z,19.10
2019-02-21T02:21:09.714Z,20.10
2019-02-21T02:23:36.218Z,19.80
2019-02-21T02:26:02.737Z,19.30
2019-02-21T02:28:29.509Z,19.13
2019-02-21T02:30:55.848Z,20.53
2019-02-21T02:33:22.233Z,19.73
2019-02-21T02:35:48.894Z,18.43
2019-02-21T02:38:15.527Z,19.17
2019-02-21T02:44:12.809Z,20.03
2019-02-21T02:46:39.630Z,21.87
2019-02-21T02:49:06.182Z,19.37
2019-02-21T02:51:32.552Z,21.07
2019-02-21T02:53:58.803Z,20.00
2019-02-21T02:56:25.377Z,20.77
2019-02-21T02:58:51.796Z,21.20
2019-02-21T03:01:18.359Z,22.77
2019-02-21T03:03:45.014Z,23.03
2019-02-21T03:06:11.610Z,22.00
2019-02-21T03:08:37.916Z,22.20
2019-02-21T03:11:04.463Z,21.80
2019-02-21T03:13:31.252Z,21.20
2019-02-21T03:15:57.864Z,22.83
2019-02-21T03:18:24.556Z,21.70
2019-02-21T03:20:51.043Z,22.17
2019-02-21T03:23:17.365Z,22.30
2019-02-21T03:25:43.866Z,22.70
2019-02-21T03:28:10.200Z,23.67
2019-02-21T03:30:36.913Z,21.97
2019-02-21T03:33:03.527Z,21.97
2019-02-21T03:35:30.649Z,23.30
2019-02-21T03:37:57.109Z,21.43
2019-02-21T03:40:23.521Z,25.10
2019-02-21T03:42:50.097Z,22.80
2019-02-21T03:45:16.816Z,24.23
2019-02-21T03:47:43.372Z,25.17
2019-02-21T03:50:10.629Z,27.60
2019-02-21T03:52:37.158Z,23.73
2019-02-21T03:55:05.001Z,25.40
2019-02-21T03:57:31.615Z,23.87
2019-02-21T03:59:58.204Z,26.27
2019-02-21T04:02:24.810Z,27.33
2019-02-21T04:04:51.336Z,25.27
2019-02-21T04:07:17.659Z,27.07
2019-02-21T04:09:44.073Z,28.83
2019-02-21T04:12:10.636Z,31.03
2019-02-21T04:14:37.183Z,29.10
2019-02-21T04:17:03.534Z,29.33
2019-02-21T04:19:29.934Z,29.30
2019-02-21T04:21:56.329Z,30.13
2019-02-21T04:24:22.674Z,30.40
2019-02-21T04:26:49.070Z,29.00
2019-02-21T04:29:15.396Z,29.50
2019-02-21T04:31:41.741Z,31.70
2019-02-21T04:34:08.322Z,29.13
2019-02-21T04:36:34.713Z,31.83
2019-02-21T04:39:01.869Z,32.13
2019-02-21T04:41:28.417Z,35.10
2019-02-21T04:43:54.944Z,32.73
2019-02-21T04:46:21.353Z,32.27
2019-02-21T04:48:47.713Z,30.50
2019-02-21T04:51:14.451Z,33.30
2019-02-21T04:53:40.986Z,32.73
2019-02-21T04:56:07.295Z,31.47
2019-02-21T04:58:33.947Z,31.40
2019-02-21T05:01:00.353Z,32.70
2019-02-21T05:03:26.909Z,32.33
2019-02-21T05:05:53.525Z,32.67
2019-02-21T05:08:19.951Z,34.13
2019-02-21T05:10:46.818Z,31.80
2019-02-21T05:13:13.428Z,33.50
2019-02-21T05:15:41.865Z,33.40
2019-02-21T05:18:08.223Z,35.20
2019-02-21T05:20:34.983Z,36.37
2019-02-21T05:23:01.621Z,37.93
2019-02-21T05:25:28.168Z,37.33
2019-02-21T05:27:55.557Z,34.07
2019-02-21T05:30:23.671Z,35.13
2019-02-21T05:32:54.751Z,35.00
2019-02-21T05:35:25.770Z,34.87
2019-02-21T05:37:57.679Z,35.80
2019-02-21T05:40:28.852Z,36.93
2019-02-21T05:43:00.231Z,36.70
2019-02-21T05:45:28.640Z,38.47
2019-02-21T05:48:03.120Z,37.40
2019-02-21T05:50:31.356Z,39.50
2019-02-21T05:53:02.781Z,39.83
2019-02-21T05:55:34.070Z,38.97
2019-02-21T05:58:14.482Z,39.30
2019-02-21T06:00:54.812Z,38.00
2019-02-21T06:03:40.906Z,40.83
2019-02-21T06:06:50.163Z,39.37
2019-02-21T06:12:50.911Z,39.60
2019-02-21T06:15:36.629Z,42.50
2019-02-21T06:18:20.285Z,40.70
2019-02-21T06:20:48.524Z,40.83
2019-02-21T06:23:32.388Z,40.87
2019-02-21T06:26:06.769Z,39.10
2019-02-21T06:28:35.073Z,41.40
2019-02-21T06:31:03.585Z,42.30
2019-02-21T06:33:29.992Z,40.73
2019-02-21T06:35:56.456Z,41.87
2019-02-21T06:38:23.094Z,44.20
2019-02-21T06:40:50.160Z,40.83
2019-02-21T06:43:16.645Z,42.97
2019-02-21T06:45:43.200Z,44.10
2019-02-21T06:48:09.669Z,41.90
2019-02-21T06:50:36.425Z,43.40
2019-02-21T06:53:02.866Z,42.20
2019-02-21T06:55:29.400Z,43.60
2019-02-21T06:57:55.805Z,41.53
2019-02-21T07:00:22.401Z,43.37
2019-02-21T07:02:49.622Z,43.67
2019-02-21T07:05:16.129Z,44.47
2019-02-21T07:07:42.438Z,44.27
2019-02-21T07:10:08.828Z,43.97
2019-02-21T07:12:35.579Z,43.67
2019-02-21T07:15:02.288Z,44.33
2019-02-21T07:17:28.626Z,43.73
2019-02-21T07:19:54.873Z,43.00
2019-02-21T07:22:22.289Z,42.27
2019-02-21T07:24:53.863Z,43.37
2019-02-21T07:27:19.677Z,41.60
2019-02-21T07:29:46.048Z,42.57
2019-02-21T07:32:12.838Z,41.47
2019-02-21T07:34:41.317Z,41.97
2019-02-21T07:37:18.224Z,42.07
2019-02-21T07:39:36.549Z,40.53
2019-02-21T07:42:03.125Z,39.07
2019-02-21T07:44:29.475Z,39.87
2019-02-21T07:46:55.925Z,40.37
2019-02-21T07:49:22.142Z,41.43
2019-02-21T07:51:48.570Z,39.87
2019-02-21T07:54:14.964Z,41.20
2019-02-21T07:56:42.448Z,40.00
2019-02-21T07:59:08.789Z,37.77
2019-02-21T08:01:35.097Z,37.80
2019-02-21T08:04:02.123Z,39.67
2019-02-21T08:06:28.729Z,38.33
2019-02-21T08:08:55.200Z,39.50
2019-02-21T08:11:21.828Z,40.23
2019-02-21T08:13:48.302Z,38.63
2019-02-21T08:16:14.836Z,38.57
2019-02-21T08:18:41.806Z,37.40
2019-02-21T08:21:08.160Z,37.83
2019-02-21T08:23:34.562Z,38.30
2019-02-21T08:26:01.084Z,38.27
2019-02-21T08:28:27.430Z,36.07
2019-02-21T08:30:53.758Z,35.30
2019-02-21T08:33:22.056Z,36.50
2019-02-21T08:35:48.281Z,33.97
2019-02-21T08:38:15.319Z,36.00
2019-02-21T08:40:41.878Z,34.53
2019-02-21T08:43:08.943Z,33.43
2019-02-21T08:45:35.445Z,34.00
2019-02-21T08:48:01.867Z,34.47
2019-02-21T08:50:28.390Z,35.10
2019-02-21T08:52:54.961Z,33.93
2019-02-21T08:55:21.596Z,33.90
2019-02-21T08:57:48.829Z,39.03
2019-02-21T09:00:15.843Z,32.50
2019-02-21T09:02:42.664Z,32.20
2019-02-21T09:05:11.269Z,32.20
2019-02-21T09:07:38.045Z,31.63
2019-02-21T09:10:07.680Z,31.50
2019-02-21T09:12:34.635Z,30.23
2019-02-21T09:15:01.285Z,30.87
2019-02-21T09:17:27.788Z,31.37
2019-02-21T09:19:54.661Z,28.57
2019-02-21T09:22:20.950Z,29.47
2019-02-21T09:24:47.404Z,29.43
2019-02-21T09:27:14.100Z,29.60
2019-02-21T09:29:40.604Z,29.27
2019-02-21T09:32:07.462Z,28.00
2019-02-21T09:34:34.297Z,28.77
2019-02-21T09:37:01.567Z,27.80
2019-02-21T09:39:28.145Z,25.77
2019-02-21T09:41:54.633Z,28.63
2019-02-21T09:44:21.070Z,28.53
2019-02-21T09:46:47.952Z,27.23
2019-02-21T09:49:14.825Z,25.87
2019-02-21T09:51:42.116Z,27.07
2019-02-21T09:54:08.704Z,27.40
2019-02-21T09:56:35.213Z,29.37
2019-02-21T09:59:01.846Z,27.77
2019-02-21T10:01:28.240Z,27.30
2019-02-21T10:03:57.293Z,29.53
2019-02-21T10:06:23.341Z,27.80
2019-02-21T10:08:49.867Z,30.13
2019-02-21T10:11:16.204Z,29.70
2019-02-21T10:13:42.655Z,29.57
2019-02-21T10:16:09.521Z,29.33
2019-02-21T10:18:36.651Z,30.73
2019-02-21T10:21:03.101Z,30.47
2019-02-21T10:23:29.332Z,30.70
2019-02-21T10:25:55.580Z,29.77
2019-02-21T10:28:21.907Z,29.03
2019-02-21T10:30:48.184Z,29.57
2019-02-21T10:33:14.594Z,28.13
2019-02-21T10:35:41.083Z,28.60
2019-02-21T10:38:07.439Z,30.80
2019-02-21T10:40:34.365Z,31.90
2019-02-21T10:43:00.696Z,30.97
2019-02-21T10:45:27.129Z,27.43
2019-02-21T10:47:53.617Z,29.03
2019-02-21T10:50:20.943Z,27.67
2019-02-21T10:52:47.448Z,26.67
2019-02-21T10:55:14.898Z,28.70
2019-02-21T10:57:41.574Z,31.30
2019-02-21T11:00:20.034Z,29.80
2019-02-21T11:02:46.624Z,28.40
2019-02-21T11:05:13.227Z,29.30
2019-02-21T11:07:40.216Z,31.93
2019-02-21T11:10:12.112Z,29.87
2019-02-21T11:12:38.515Z,30.60
2019-02-21T11:15:08.810Z,28.70
2019-02-21T11:17:35.916Z,29.53
2019-02-21T11:23:37.234Z,31.03
2019-02-21T11:26:03.688Z,29.67
2019-02-21T11:28:29.993Z,29.90
2019-02-21T11:30:56.431Z,31.07
2019-02-21T11:33:23.468Z,33.07
2019-02-21T11:35:49.829Z,30.60
2019-02-21T11:38:16.341Z,30.27
2019-02-21T11:40:43.164Z,31.20
2019-02-21T11:43:09.482Z,32.67
2019-02-21T11:45:35.880Z,32.43
2019-02-21T11:48:03.232Z,32.17
2019-02-21T11:50:29.755Z,30.70
2019-02-21T11:52:56.469Z,32.63
2019-02-21T11:55:24.596Z,32.20
2019-02-21T11:57:51.072Z,30.80
2019-02-21T12:00:25.840Z,33.10
2019-02-21T12:02:52.676Z,34.80
2019-02-21T12:05:30.156Z,36.00
2019-02-21T12:07:47.697Z,32.00
2019-02-21T12:10:16.048Z,33.20
2019-02-21T12:12:42.788Z,34.47
2019-02-21T12:15:11.572Z,33.17
2019-02-21T12:17:38.149Z,37.87
2019-02-21T12:20:07.413Z,32.83
2019-02-21T12:22:33.809Z,35.10
2019-02-21T12:25:00.372Z,33.77
2019-02-21T12:27:26.827Z,32.60
2019-02-21T12:29:53.484Z,33.97
2019-02-21T12:32:19.897Z,35.67
2019-02-21T12:34:46.305Z,34.20
2019-02-21T12:37:13.020Z,35.23
2019-02-21T12:39:39.529Z,34.60
2019-02-21T12:42:06.903Z,35.57
2019-02-21T12:44:33.427Z,36.33
2019-02-21T12:46:59.930Z,35.30
2019-02-21T12:49:26.324Z,37.70
2019-02-21T12:51:52.776Z,38.63
2019-02-21T12:54:19.398Z,35.57
2019-02-21T12:56:45.867Z,37.20
2019-02-21T12:59:12.163Z,37.23
2019-02-21T13:01:38.554Z,37.20
2019-02-21T13:04:05.015Z,39.27
2019-02-21T13:06:31.549Z,37.60
2019-02-21T13:08:57.814Z,36.00
2019-02-21T13:11:24.324Z,33.87
2019-02-21T13:13:50.664Z,34.43
2019-02-21T13:16:17.569Z,36.93
2019-02-21T13:18:43.943Z,36.57
2019-02-21T13:21:10.230Z,37.70
2019-02-21T13:23:36.739Z,38.10
2019-02-21T13:26:03.074Z,37.67
2019-02-21T13:28:29.393Z,36.23
2019-02-21T13:30:55.734Z,37.07
2019-02-21T13:33:22.101Z,39.37
2019-02-21T13:35:52.612Z,42.27
2019-02-21T13:38:17.144Z,37.60
2019-02-21T13:40:43.725Z,38.57
2019-02-21T13:43:10.262Z,38.23
2019-02-21T13:45:37.468Z,37.80
2019-02-21T13:48:03.952Z,40.17
2019-02-21T13:50:30.749Z,39.37
2019-02-21T13:52:57.087Z,38.97
2019-02-21T13:55:23.762Z,43.17
2019-02-21T13:57:50.279Z,42.33
2019-02-21T14:00:21.226Z,42.63
2019-02-21T14:02:48.088Z,43.47
2019-02-21T14:05:14.803Z,43.90
2019-02-21T14:07:41.233Z,45.57
2019-02-21T14:10:10.187Z,45.17
2019-02-21T14:12:37.029Z,43.23
2019-02-21T14:15:07.253Z,41.97
2019-02-21T14:17:33.709Z,42.90
2019-02-21T14:20:00.497Z,45.93
2019-02-21T14:22:27.545Z,44.77
2019-02-21T14:24:54.492Z,45.37
2019-02-21T14:27:21.265Z,43.83
2019-02-21T14:29:49.427Z,44.37
2019-02-21T14:32:16.089Z,49.37
2019-02-21T14:34:42.967Z,44.67
2019-02-21T14:37:09.606Z,40.93
2019-02-21T14:39:35.982Z,51.27
2019-02-21T14:42:04.587Z,44.73
2019-02-21T14:44:31.023Z,42.57
2019-02-21T14:46:57.683Z,43.30
2019-02-21T14:49:25.751Z,38.87
2019-02-21T14:51:52.451Z,38.97
2019-02-21T14:54:18.957Z,38.00
2019-02-21T14:56:45.465Z,40.27
2019-02-21T14:59:12.001Z,38.77
2019-02-21T15:01:38.799Z,37.77
2019-02-21T15:04:05.183Z,40.00
2019-02-21T15:06:31.485Z,39.50
2019-02-21T15:08:57.992Z,39.20
2019-02-21T15:11:25.246Z,38.70
2019-02-21T15:13:51.968Z,40.57
2019-02-21T15:16:18.396Z,40.57
2019-02-21T15:18:44.869Z,38.37
2019-02-21T15:21:11.254Z,40.87
2019-02-21T15:23:37.835Z,40.77
2019-02-21T15:26:04.483Z,43.70
2019-02-21T15:28:30.802Z,41.27
2019-02-21T15:30:57.199Z,43.43
2019-02-21T15:33:23.691Z,40.13
2019-02-21T15:35:50.298Z,43.10
2019-02-21T15:38:19.815Z,43.03
2019-02-21T15:40:45.132Z,39.77
2019-02-21T15:43:11.493Z,50.60
2019-02-21T15:45:37.864Z,40.17
2019-02-21T15:48:04.390Z,41.13
2019-02-21T15:50:30.954Z,38.90
2019-02-21T15:52:57.230Z,39.20
2019-02-21T15:55:23.983Z,36.77
2019-02-21T15:57:50.611Z,39.57
2019-02-21T16:00:21.426Z,36.73
2019-02-21T16:02:48.212Z,39.77
2019-02-21T16:05:14.824Z,37.23
2019-02-21T16:07:41.214Z,36.90
2019-02-21T16:10:14.711Z,37.53
2019-02-21T16:12:41.535Z,37.97
2019-02-21T16:15:10.327Z,37.67
2019-02-21T16:17:42.398Z,33.60
2019-02-21T16:20:16.214Z,34.97
2019-02-21T16:22:43.018Z,33.83
2019-02-21T16:25:12.384Z,34.57
2019-02-21T16:27:38.766Z,33.33
2019-02-21T16:30:08.500Z,33.77
2019-02-21T16:32:34.955Z,33.77
2019-02-21T16:35:01.415Z,33.50
2019-02-21T16:37:27.931Z,32.10
2019-02-21T16:39:54.315Z,32.63
2019-02-21T16:42:20.848Z,32.30
2019-02-21T16:44:47.206Z,33.93
2019-02-21T16:47:13.545Z,32.27
2019-02-21T16:49:40.129Z,29.73
2019-02-21T16:52:06.926Z,29.30
2019-02-21T16:54:33.835Z,31.03
2019-02-21T16:57:00.239Z,30.23
2019-02-21T16:59:26.764Z,27.50
2019-02-21T17:01:53.314Z,26.90
2019-02-21T17:04:20.842Z,29.80
2019-02-21T17:06:47.184Z,29.80
2019-02-21T17:09:13.607Z,29.00
2019-02-21T17:11:40.528Z,28.27
2019-02-21T17:14:07.045Z,26.33
2019-02-21T17:16:33.409Z,28.00
2019-02-21T17:19:00.138Z,29.30
2019-02-21T17:21:26.834Z,26.10
2019-02-21T17:23:55.979Z,25.67
2019-02-21T17:26:24.617Z,27.70
2019-02-21T17:28:51.037Z,26.67
2019-02-21T17:31:17.701Z,26.30
2019-02-21T17:33:44.583Z,26.17
2019-02-21T17:36:11.122Z,25.87
2019-02-21T17:38:37.550Z,24.90
2019-02-21T17:41:04.011Z,25.10
2019-02-21T17:43:30.357Z,25.17
2019-02-21T17:45:56.720Z,25.47
2019-02-21T17:48:23.089Z,24.43
2019-02-21T17:50:49.412Z,22.90
2019-02-21T17:53:15.670Z,23.40
2019-02-21T17:55:42.197Z,23.03
2019-02-21T17:58:08.631Z,21.50
2019-02-21T18:00:37.002Z,20.50
2019-02-21T18:03:03.554Z,19.77
2019-02-21T18:05:29.983Z,21.87
2019-02-21T18:07:56.522Z,21.03
2019-02-21T18:10:23.033Z,18.73
2019-02-21T18:12:49.401Z,19.27
2019-02-21T18:15:16.734Z,18.80
2019-02-21T18:17:43.231Z,19.63
2019-02-21T18:20:11.438Z,19.10
2019-02-21T18:22:38.165Z,21.87
2019-02-21T18:25:20.686Z,19.50
2019-02-21T18:27:47.263Z,19.53
2019-02-21T18:30:15.883Z,17.97
2019-02-21T18:32:42.447Z,19.90
2019-02-21T18:35:10.423Z,18.60
2019-02-21T18:37:47.021Z,18.33
2019-02-21T18:40:17.191Z,18.50
2019-02-21T18:42:41.079Z,18.83
2019-02-21T18:45:08.846Z,18.33
2019-02-21T18:47:35.268Z,19.10
2019-02-21T18:50:01.812Z,18.47
2019-02-21T18:52:28.136Z,19.93
2019-02-21T18:54:54.865Z,18.27
2019-02-21T18:57:21.367Z,19.30
2019-02-21T18:59:47.675Z,26.93
2019-02-21T19:02:14.123Z,20.17
2019-02-21T19:04:40.795Z,18.83
2019-02-21T19:07:08.271Z,21.93
2019-02-21T19:09:34.654Z,20.17
2019-02-21T19:12:01.052Z,21.03
2019-02-21T19:14:27.764Z,20.50
2019-02-21T19:16:54.193Z,18.63
2019-02-21T19:19:20.454Z,20.37
2019-02-21T19:21:46.850Z,22.80
2019-02-21T19:24:13.257Z,22.20
2019-02-21T19:26:40.149Z,22.73
2019-02-21T19:29:07.282Z,22.83
2019-02-21T19:31:38.732Z,20.57
2019-02-21T19:34:08.309Z,22.77
2019-02-21T19:36:35.618Z,22.70
2019-02-21T19:39:04.920Z,22.83
2019-02-21T19:41:32.172Z,24.80
2019-02-21T19:44:08.455Z,22.47
2019-02-21T19:46:27.168Z,25.37
2019-02-21T19:48:53.676Z,23.73
2019-02-21T19:51:20.426Z,24.17
2019-02-21T19:53:47.565Z,25.93
2019-02-21T19:56:14.758Z,25.57
2019-02-21T19:58:41.283Z,30.33
2019-02-21T20:01:08.067Z,34.33
2019-02-21T20:03:34.318Z,30.97
2019-02-21T20:06:01.070Z,26.20
2019-02-21T20:08:27.568Z,30.30
2019-02-21T20:10:54.788Z,28.60
2019-02-21T20:13:21.393Z,39.10
2019-02-21T20:15:48.460Z,31.63
2019-02-21T20:21:38.508Z,25.30
2019-02-21T20:24:05.051Z,28.63
2019-02-21T20:26:31.487Z,27.17
2019-02-21T20:28:58.264Z,28.30
2019-02-21T20:31:25.173Z,26.90
2019-02-21T20:33:51.774Z,26.00
2019-02-21T20:36:18.259Z,28.50
2019-02-21T20:38:44.880Z,26.43
2019-02-21T20:41:11.507Z,24.37
2019-02-21T20:43:38.035Z,23.90
2019-02-21T20:46:04.797Z,23.83
2019-02-21T20:48:31.204Z,22.10
2019-02-21T20:50:57.844Z,20.83
2019-02-21T20:53:24.367Z,24.30
2019-02-21T20:55:50.767Z,23.60
2019-02-21T20:58:17.762Z,21.37
2019-02-21T21:00:44.107Z,22.90
2019-02-21T21:03:10.487Z,24.17
2019-02-21T21:05:37.007Z,22.33
2019-02-21T21:08:03.520Z,20.17
2019-02-21T21:10:30.073Z,21.13
2019-02-21T21:12:56.336Z,26.40
2019-02-21T21:15:22.797Z,27.20
2019-02-21T21:17:49.023Z,31.43
2019-02-21T21:20:16.927Z,34.30
2019-02-21T21:22:43.819Z,28.83
2019-02-21T21:25:17.183Z,28.37
2019-02-21T21:27:43.639Z,27.67
2019-02-21T21:30:12.145Z,33.13
2019-02-21T21:32:39.044Z,32.00
2019-02-21T21:35:05.503Z,32.87
2019-02-21T21:37:31.877Z,23.00
2019-02-21T21:39:58.271Z,23.07
2019-02-21T21:42:24.673Z,21.00
2019-02-21T21:44:51.140Z,22.10
2019-02-21T21:47:17.363Z,20.77
2019-02-21T21:49:43.693Z,18.57
2019-02-21T21:52:10.445Z,16.87
2019-02-21T21:54:38.035Z,18.90
2019-02-21T21:57:04.762Z,18.20
2019-02-21T21:59:31.090Z,17.10
2019-02-21T22:01:57.678Z,19.40
2019-02-21T22:04:24.220Z,19.63
2019-02-21T22:06:50.922Z,21.30
2019-02-21T22:09:17.758Z,23.53
2019-02-21T22:11:44.207Z,24.20
2019-02-21T22:14:16.565Z,26.00
2019-02-21T22:16:43.295Z,25.27
2019-02-21T22:19:09.725Z,28.10
2019-02-21T22:21:36.232Z,26.47
2019-02-21T22:24:02.888Z,29.63
2019-02-21T22:26:29.323Z,28.70
2019-02-21T22:28:55.739Z,29.10
2019-02-21T22:31:22.309Z,29.80
2019-02-21T22:33:48.728Z,29.57
2019-02-21T22:36:15.015Z,30.67
2019-02-21T22:38:41.307Z,29.80
2019-02-21T22:41:07.765Z,31.03
2019-02-21T22:43:34.422Z,29.50
2019-02-21T22:46:00.856Z,31.93
2019-02-21T22:48:27.304Z,30.43
2019-02-21T22:50:53.749Z,34.00
2019-02-21T22:53:20.017Z,30.40
2019-02-21T22:55:46.509Z,32.17
2019-02-21T22:58:12.922Z,34.30
2019-02-21T23:00:59.561Z,35.40
2019-02-21T23:03:39.211Z,33.77
2019-02-21T23:06:31.226Z,31.70
2019-02-21T23:08:57.668Z,32.87
2019-02-21T23:11:24.482Z,33.20
2019-02-21T23:13:51.072Z,35.37
2019-02-21T23:16:17.486Z,34.00
2019-02-21T23:18:44.576Z,33.30
2019-02-21T23:21:11.058Z,42.33
2019-02-21T23:23:37.806Z,36.13
2019-02-21T23:26:04.270Z,31.53
2019-02-21T23:28:30.711Z,32.13
2019-02-21T23:30:57.115Z,74.40
2019-02-21T23:33:24.558Z,41.57
2019-02-21T23:35:50.946Z,44.53
2019-02-21T23:38:17.429Z,37.37
2019-02-21T23:40:43.862Z,33.03
2019-02-21T23:43:10.319Z,23.20
2019-02-21T23:45:36.722Z,22.17
2019-02-21T23:48:03.015Z,20.47
2019-02-21T23:50:29.339Z,20.57
2019-02-21T23:52:55.605Z,19.60
2019-02-21T23:55:22.135Z,20.13
2019-02-21T23:57:48.505Z,19.20
